sensor_id;sensor_type;location;lat;lon;timestamp;P1;durP1;ratioP1;P2;durP2;ratioP2
51214;SDS011;63849;47.546;19.254;2023-04-25T00:02:05;4.80;;;4.25;;
51214;SDS011;63849;47.546;19.254;2023-04-25T00:04:32;4.82;;;4.43;;
51214;SDS011;63849;47.546;19.254;2023-04-25T00:06:59;5.82;;;4.40;;
51214;SDS011;63849;47.546;19.254;2023-04-25T00:09:27;5.22;;;4.32;;
51214;SDS011;63849;47.546;19.254;2023-04-25T00:11:56;4.43;;;4.03;;
51214;SDS011;63849;47.546;19.254;2023-04-25T00:14:22;4.47;;;4.00;;
51214;SDS011;63849;47.546;19.254;2023-04-25T00:16:48;4.90;;;4.25;;
51214;SDS011;63849;47.546;19.254;2023-04-25T00:19:16;5.20;;;3.95;;
51214;SDS011;63849;47.546;19.254;2023-04-25T00:21:42;4.50;;;4.10;;
51214;SDS011;63849;47.546;19.254;2023-04-25T00:24:11;5.30;;;3.70;;
51214;SDS011;63849;47.546;19.254;2023-04-25T00:26:40;5.55;;;3.70;;
51214;SDS011;63849;47.546;19.254;2023-04-25T00:29:06;3.70;;;3.40;;
51214;SDS011;63849;47.546;19.254;2023-04-25T00:31:33;3.75;;;3.45;;
51214;SDS011;63849;47.546;19.254;2023-04-25T00:33:59;4.82;;;3.75;;
51214;SDS011;63849;47.546;19.254;2023-04-25T00:36:25;4.50;;;4.10;;
51214;SDS011;63849;47.546;19.254;2023-04-25T00:38:50;3.42;;;3.20;;
51214;SDS011;63849;47.546;19.254;2023-04-25T00:41:17;3.40;;;3.10;;
51214;SDS011;63849;47.546;19.254;2023-04-25T00:43:48;2.90;;;2.70;;
51214;SDS011;63849;47.546;19.254;2023-04-25T00:46:14;5.47;;;3.15;;
51214;SDS011;63849;47.546;19.254;2023-04-25T00:48:42;3.33;;;2.78;;
51214;SDS011;63849;47.546;19.254;2023-04-25T00:51:09;2.92;;;2.67;;
51214;SDS011;63849;47.546;19.254;2023-04-25T00:53:39;3.33;;;3.03;;
51214;SDS011;63849;47.546;19.254;2023-04-25T00:56:05;2.75;;;2.40;;
51214;SDS011;63849;47.546;19.254;2023-04-25T00:58:31;2.50;;;2.30;;
51214;SDS011;63849;47.546;19.254;2023-04-25T01:00:59;3.15;;;2.58;;
51214;SDS011;63849;47.546;19.254;2023-04-25T01:03:26;2.85;;;2.65;;
51214;SDS011;63849;47.546;19.254;2023-04-25T01:05:53;3.42;;;2.60;;
51214;SDS011;63849;47.546;19.254;2023-04-25T01:08:23;3.85;;;3.00;;
51214;SDS011;63849;47.546;19.254;2023-04-25T01:10:52;3.00;;;2.28;;
51214;SDS011;63849;47.546;19.254;2023-04-25T01:13:18;2.80;;;2.60;;
51214;SDS011;63849;47.546;19.254;2023-04-25T01:15:45;3.67;;;1.92;;
51214;SDS011;63849;47.546;19.254;2023-04-25T01:18:10;2.20;;;2.00;;
51214;SDS011;63849;47.546;19.254;2023-04-25T01:20:39;1.85;;;1.75;;
51214;SDS011;63849;47.546;19.254;2023-04-25T01:23:07;6.72;;;2.45;;
51214;SDS011;63849;47.546;19.254;2023-04-25T01:25:34;2.58;;;2.30;;
51214;SDS011;63849;47.546;19.254;2023-04-25T01:28:00;2.95;;;2.30;;
51214;SDS011;63849;47.546;19.254;2023-04-25T01:30:26;2.42;;;2.10;;
51214;SDS011;63849;47.546;19.254;2023-04-25T01:32:53;2.55;;;2.35;;
51214;SDS011;63849;47.546;19.254;2023-04-25T01:35:22;3.22;;;2.00;;
51214;SDS011;63849;47.546;19.254;2023-04-25T01:37:49;2.92;;;2.17;;
51214;SDS011;63849;47.546;19.254;2023-04-25T01:40:16;4.35;;;2.83;;
51214;SDS011;63849;47.546;19.254;2023-04-25T01:42:44;3.15;;;2.50;;
51214;SDS011;63849;47.546;19.254;2023-04-25T01:45:10;5.15;;;2.92;;
51214;SDS011;63849;47.546;19.254;2023-04-25T01:47:37;3.28;;;2.80;;
51214;SDS011;63849;47.546;19.254;2023-04-25T01:50:05;3.00;;;2.70;;
51214;SDS011;63849;47.546;19.254;2023-04-25T01:52:32;3.97;;;3.33;;
51214;SDS011;63849;47.546;19.254;2023-04-25T01:55:01;3.03;;;2.78;;
51214;SDS011;63849;47.546;19.254;2023-04-25T01:57:27;4.00;;;3.47;;
51214;SDS011;63849;47.546;19.254;2023-04-25T01:59:55;4.20;;;3.25;;
51214;SDS011;63849;47.546;19.254;2023-04-25T02:02:24;5.88;;;3.65;;
51214;SDS011;63849;47.546;19.254;2023-04-25T02:04:51;4.78;;;3.35;;
51214;SDS011;63849;47.546;19.254;2023-04-25T02:07:17;5.63;;;4.13;;
51214;SDS011;63849;47.546;19.254;2023-04-25T02:09:43;5.00;;;4.40;;
51214;SDS011;63849;47.546;19.254;2023-04-25T02:12:09;4.38;;;4.07;;
51214;SDS011;63849;47.546;19.254;2023-04-25T02:14:36;7.32;;;4.10;;
51214;SDS011;63849;47.546;19.254;2023-04-25T02:17:02;5.32;;;4.65;;
51214;SDS011;63849;47.546;19.254;2023-04-25T02:19:28;5.30;;;4.00;;
51214;SDS011;63849;47.546;19.254;2023-04-25T02:21:54;4.50;;;4.15;;
51214;SDS011;63849;47.546;19.254;2023-04-25T02:24:20;4.20;;;3.83;;
51214;SDS011;63849;47.546;19.254;2023-04-25T02:26:45;4.80;;;4.35;;
51214;SDS011;63849;47.546;19.254;2023-04-25T02:29:12;4.80;;;4.30;;
51214;SDS011;63849;47.546;19.254;2023-04-25T02:31:38;3.63;;;3.33;;
51214;SDS011;63849;47.546;19.254;2023-04-25T02:34:04;4.57;;;3.97;;
51214;SDS011;63849;47.546;19.254;2023-04-25T02:36:34;4.47;;;3.78;;
51214;SDS011;63849;47.546;19.254;2023-04-25T02:39:00;4.60;;;3.97;;
51214;SDS011;63849;47.546;19.254;2023-04-25T02:41:28;5.22;;;3.70;;
51214;SDS011;63849;47.546;19.254;2023-04-25T02:43:56;4.63;;;3.83;;
51214;SDS011;63849;47.546;19.254;2023-04-25T02:46:22;4.57;;;3.45;;
51214;SDS011;63849;47.546;19.254;2023-04-25T02:48:48;4.20;;;3.47;;
51214;SDS011;63849;47.546;19.254;2023-04-25T02:51:13;3.33;;;3.03;;
51214;SDS011;63849;47.546;19.254;2023-04-25T02:53:41;3.22;;;2.70;;
51214;SDS011;63849;47.546;19.254;2023-04-25T02:56:07;2.95;;;2.70;;
51214;SDS011;63849;47.546;19.254;2023-04-25T02:58:33;2.85;;;2.60;;
51214;SDS011;63849;47.546;19.254;2023-04-25T03:00:58;2.40;;;2.20;;
51214;SDS011;63849;47.546;19.254;2023-04-25T03:03:25;2.35;;;2.15;;
51214;SDS011;63849;47.546;19.254;2023-04-25T03:05:51;2.72;;;1.60;;
51214;SDS011;63849;47.546;19.254;2023-04-25T03:08:17;2.50;;;1.75;;
51214;SDS011;63849;47.546;19.254;2023-04-25T03:10:43;3.65;;;1.77;;
51214;SDS011;63849;47.546;19.254;2023-04-25T03:13:10;2.13;;;1.92;;
51214;SDS011;63849;47.546;19.254;2023-04-25T03:15:36;2.08;;;1.88;;
51214;SDS011;63849;47.546;19.254;2023-04-25T03:18:02;2.22;;;1.50;;
51214;SDS011;63849;47.546;19.254;2023-04-25T03:20:29;1.75;;;1.33;;
51214;SDS011;63849;47.546;19.254;2023-04-25T03:22:55;2.30;;;1.95;;
51214;SDS011;63849;47.546;19.254;2023-04-25T03:25:24;3.25;;;1.38;;
51214;SDS011;63849;47.546;19.254;2023-04-25T03:27:50;1.85;;;1.50;;
51214;SDS011;63849;47.546;19.254;2023-04-25T03:30:16;1.60;;;1.50;;
51214;SDS011;63849;47.546;19.254;2023-04-25T03:32:44;1.90;;;1.40;;
51214;SDS011;63849;47.546;19.254;2023-04-25T03:35:10;2.03;;;1.63;;
51214;SDS011;63849;47.546;19.254;2023-04-25T03:37:36;3.65;;;1.75;;
51214;SDS011;63849;47.546;19.254;2023-04-25T03:40:02;1.67;;;1.50;;
51214;SDS011;63849;47.546;19.254;2023-04-25T03:42:29;2.25;;;1.88;;
51214;SDS011;63849;47.546;19.254;2023-04-25T03:44:55;3.53;;;1.70;;
51214;SDS011;63849;47.546;19.254;2023-04-25T03:47:21;1.65;;;1.52;;
51214;SDS011;63849;47.546;19.254;2023-04-25T03:49:46;2.45;;;1.85;;
51214;SDS011;63849;47.546;19.254;2023-04-25T03:52:14;4.22;;;2.30;;
51214;SDS011;63849;47.546;19.254;2023-04-25T03:54:40;3.08;;;1.70;;
51214;SDS011;63849;47.546;19.254;2023-04-25T03:57:05;1.58;;;1.48;;
51214;SDS011;63849;47.546;19.254;2023-04-25T03:59:31;1.60;;;1.50;;
51214;SDS011;63849;47.546;19.254;2023-04-25T04:02:02;2.75;;;1.60;;
51214;SDS011;63849;47.546;19.254;2023-04-25T04:04:28;3.50;;;1.45;;
51214;SDS011;63849;47.546;19.254;2023-04-25T04:06:53;3.50;;;1.70;;
51214;SDS011;63849;47.546;19.254;2023-04-25T04:09:19;1.40;;;1.30;;
51214;SDS011;63849;47.546;19.254;2023-04-25T04:11:45;2.47;;;1.30;;
51214;SDS011;63849;47.546;19.254;2023-04-25T04:14:11;1.85;;;1.27;;
51214;SDS011;63849;47.546;19.254;2023-04-25T04:16:37;1.60;;;1.50;;
51214;SDS011;63849;47.546;19.254;2023-04-25T04:19:03;1.40;;;1.30;;
51214;SDS011;63849;47.546;19.254;2023-04-25T04:21:28;6.47;;;4.57;;
51214;SDS011;63849;47.546;19.254;2023-04-25T04:23:55;1.52;;;1.35;;
51214;SDS011;63849;47.546;19.254;2023-04-25T04:26:22;1.17;;;1.00;;
51214;SDS011;63849;47.546;19.254;2023-04-25T04:28:49;3.10;;;1.83;;
51214;SDS011;63849;47.546;19.254;2023-04-25T04:31:19;1.42;;;1.33;;
51214;SDS011;63849;47.546;19.254;2023-04-25T04:33:46;1.60;;;1.50;;
51214;SDS011;63849;47.546;19.254;2023-04-25T04:36:12;1.50;;;1.40;;
51214;SDS011;63849;47.546;19.254;2023-04-25T04:38:38;2.85;;;2.00;;
51214;SDS011;63849;47.546;19.254;2023-04-25T04:41:06;2.03;;;1.60;;
51214;SDS011;63849;47.546;19.254;2023-04-25T04:43:32;1.63;;;1.52;;
51214;SDS011;63849;47.546;19.254;2023-04-25T04:46:00;3.17;;;1.52;;
51214;SDS011;63849;47.546;19.254;2023-04-25T04:48:26;2.15;;;1.52;;
51214;SDS011;63849;47.546;19.254;2023-04-25T04:50:53;1.70;;;1.58;;
51214;SDS011;63849;47.546;19.254;2023-04-25T04:53:19;4.10;;;1.70;;
51214;SDS011;63849;47.546;19.254;2023-04-25T04:55:44;1.85;;;1.70;;
51214;SDS011;63849;47.546;19.254;2023-04-25T04:58:11;3.42;;;1.92;;
51214;SDS011;63849;47.546;19.254;2023-04-25T05:00:37;1.92;;;1.83;;
51214;SDS011;63849;47.546;19.254;2023-04-25T05:03:03;2.58;;;2.28;;
51214;SDS011;63849;47.546;19.254;2023-04-25T05:05:36;2.20;;;2.00;;
51214;SDS011;63849;47.546;19.254;2023-04-25T05:08:05;1.73;;;1.63;;
51214;SDS011;63849;47.546;19.254;2023-04-25T05:10:31;2.50;;;2.28;;
51214;SDS011;63849;47.546;19.254;2023-04-25T05:12:57;2.55;;;2.30;;
51214;SDS011;63849;47.546;19.254;2023-04-25T05:15:22;2.45;;;2.22;;
51214;SDS011;63849;47.546;19.254;2023-04-25T05:17:48;4.65;;;2.30;;
51214;SDS011;63849;47.546;19.254;2023-04-25T05:20:14;2.05;;;1.90;;
51214;SDS011;63849;47.546;19.254;2023-04-25T05:22:40;2.58;;;2.08;;
51214;SDS011;63849;47.546;19.254;2023-04-25T05:25:07;1.70;;;1.60;;
51214;SDS011;63849;47.546;19.254;2023-04-25T05:27:33;1.92;;;1.80;;
51214;SDS011;63849;47.546;19.254;2023-04-25T05:29:59;2.35;;;1.92;;
51214;SDS011;63849;47.546;19.254;2023-04-25T05:32:25;1.80;;;1.70;;
51214;SDS011;63849;47.546;19.254;2023-04-25T05:34:51;2.30;;;2.10;;
51214;SDS011;63849;47.546;19.254;2023-04-25T05:37:17;2.38;;;2.08;;
51214;SDS011;63849;47.546;19.254;2023-04-25T05:39:43;1.85;;;1.75;;
51214;SDS011;63849;47.546;19.254;2023-04-25T05:42:09;1.45;;;1.30;;
51214;SDS011;63849;47.546;19.254;2023-04-25T05:44:35;1.90;;;1.80;;
51214;SDS011;63849;47.546;19.254;2023-04-25T05:47:01;1.45;;;1.35;;
51214;SDS011;63849;47.546;19.254;2023-04-25T05:49:27;2.20;;;1.80;;
51214;SDS011;63849;47.546;19.254;2023-04-25T05:51:52;2.33;;;1.80;;
51214;SDS011;63849;47.546;19.254;2023-04-25T05:54:18;2.30;;;1.38;;
51214;SDS011;63849;47.546;19.254;2023-04-25T05:56:44;3.08;;;2.42;;
51214;SDS011;63849;47.546;19.254;2023-04-25T05:59:09;15.95;;;9.35;;
51214;SDS011;63849;47.546;19.254;2023-04-25T06:01:35;3.75;;;2.70;;
51214;SDS011;63849;47.546;19.254;2023-04-25T06:04:01;2.33;;;2.05;;
51214;SDS011;63849;47.546;19.254;2023-04-25T06:06:27;2.22;;;1.13;;
51214;SDS011;63849;47.546;19.254;2023-04-25T06:08:53;1.90;;;1.70;;
51214;SDS011;63849;47.546;19.254;2023-04-25T06:11:20;1.70;;;1.23;;
51214;SDS011;63849;47.546;19.254;2023-04-25T06:13:46;5.32;;;2.72;;
51214;SDS011;63849;47.546;19.254;2023-04-25T06:16:12;4.53;;;2.83;;
51214;SDS011;63849;47.546;19.254;2023-04-25T06:18:38;2.92;;;2.60;;
51214;SDS011;63849;47.546;19.254;2023-04-25T06:21:03;3.50;;;2.53;;
51214;SDS011;63849;47.546;19.254;2023-04-25T06:23:29;6.72;;;3.60;;
51214;SDS011;63849;47.546;19.254;2023-04-25T06:25:55;7.70;;;4.05;;
51214;SDS011;63849;47.546;19.254;2023-04-25T06:28:21;5.38;;;2.33;;
51214;SDS011;63849;47.546;19.254;2023-04-25T06:30:47;5.38;;;3.50;;
51214;SDS011;63849;47.546;19.254;2023-04-25T06:33:13;3.97;;;2.20;;
51214;SDS011;63849;47.546;19.254;2023-04-25T06:35:38;2.63;;;2.00;;
51214;SDS011;63849;47.546;19.254;2023-04-25T06:38:04;5.20;;;2.22;;
51214;SDS011;63849;47.546;19.254;2023-04-25T06:40:30;3.83;;;2.60;;
51214;SDS011;63849;47.546;19.254;2023-04-25T06:42:56;3.45;;;2.80;;
51214;SDS011;63849;47.546;19.254;2023-04-25T06:45:21;5.68;;;3.38;;
51214;SDS011;63849;47.546;19.254;2023-04-25T06:47:47;3.92;;;3.28;;
51214;SDS011;63849;47.546;19.254;2023-04-25T06:50:13;7.88;;;4.25;;
51214;SDS011;63849;47.546;19.254;2023-04-25T06:52:39;8.18;;;4.75;;
51214;SDS011;63849;47.546;19.254;2023-04-25T06:55:05;11.27;;;6.15;;
51214;SDS011;63849;47.546;19.254;2023-04-25T06:57:31;7.50;;;4.68;;
51214;SDS011;63849;47.546;19.254;2023-04-25T06:59:56;9.98;;;6.13;;
51214;SDS011;63849;47.546;19.254;2023-04-25T07:02:22;7.65;;;5.35;;
51214;SDS011;63849;47.546;19.254;2023-04-25T07:04:48;8.45;;;5.32;;
51214;SDS011;63849;47.546;19.254;2023-04-25T07:07:14;5.95;;;4.93;;
51214;SDS011;63849;47.546;19.254;2023-04-25T07:09:43;6.35;;;4.28;;
51214;SDS011;63849;47.546;19.254;2023-04-25T07:12:08;3.95;;;3.53;;
51214;SDS011;63849;47.546;19.254;2023-04-25T07:14:34;6.40;;;4.55;;
51214;SDS011;63849;47.546;19.254;2023-04-25T07:17:00;5.43;;;4.38;;
51214;SDS011;63849;47.546;19.254;2023-04-25T07:19:26;3.92;;;3.60;;
51214;SDS011;63849;47.546;19.254;2023-04-25T07:21:54;4.00;;;3.60;;
51214;SDS011;63849;47.546;19.254;2023-04-25T07:24:20;3.97;;;3.22;;
51214;SDS011;63849;47.546;19.254;2023-04-25T07:26:46;3.10;;;2.58;;
51214;SDS011;63849;47.546;19.254;2023-04-25T07:29:11;3.92;;;3.50;;
51214;SDS011;63849;47.546;19.254;2023-04-25T07:31:37;8.75;;;6.40;;
51214;SDS011;63849;47.546;19.254;2023-04-25T07:34:04;2.88;;;2.67;;
51214;SDS011;63849;47.546;19.254;2023-04-25T07:36:30;3.78;;;3.47;;
51214;SDS011;63849;47.546;19.254;2023-04-25T07:38:56;3.40;;;2.90;;
51214;SDS011;63849;47.546;19.254;2023-04-25T07:41:22;3.90;;;3.28;;
51214;SDS011;63849;47.546;19.254;2023-04-25T07:43:48;4.38;;;4.07;;
51214;SDS011;63849;47.546;19.254;2023-04-25T07:46:14;3.97;;;3.67;;
51214;SDS011;63849;47.546;19.254;2023-04-25T07:48:40;4.95;;;4.45;;
51214;SDS011;63849;47.546;19.254;2023-04-25T07:51:05;4.22;;;3.83;;
51214;SDS011;63849;47.546;19.254;2023-04-25T07:53:32;3.92;;;3.63;;
51214;SDS011;63849;47.546;19.254;2023-04-25T07:55:59;5.10;;;4.60;;
51214;SDS011;63849;47.546;19.254;2023-04-25T07:58:25;5.60;;;5.10;;
51214;SDS011;63849;47.546;19.254;2023-04-25T08:00:51;5.55;;;5.05;;
51214;SDS011;63849;47.546;19.254;2023-04-25T08:03:17;6.50;;;5.85;;
51214;SDS011;63849;47.546;19.254;2023-04-25T08:05:42;4.97;;;4.50;;
51214;SDS011;63849;47.546;19.254;2023-04-25T08:08:08;5.13;;;4.63;;
51214;SDS011;63849;47.546;19.254;2023-04-25T08:10:34;5.68;;;5.18;;
51214;SDS011;63849;47.546;19.254;2023-04-25T08:13:00;5.13;;;4.72;;
51214;SDS011;63849;47.546;19.254;2023-04-25T08:15:25;4.90;;;4.50;;
51214;SDS011;63849;47.546;19.254;2023-04-25T08:17:51;5.25;;;4.50;;
51214;SDS011;63849;47.546;19.254;2023-04-25T08:20:17;4.55;;;4.15;;
51214;SDS011;63849;47.546;19.254;2023-04-25T08:22:43;4.63;;;4.22;;
51214;SDS011;63849;47.546;19.254;2023-04-25T08:25:09;5.10;;;4.55;;
51214;SDS011;63849;47.546;19.254;2023-04-25T08:27:35;4.53;;;3.92;;
51214;SDS011;63849;47.546;19.254;2023-04-25T08:30:01;4.90;;;4.15;;
51214;SDS011;63849;47.546;19.254;2023-04-25T08:32:28;3.92;;;3.60;;
51214;SDS011;63849;47.546;19.254;2023-04-25T08:34:54;4.25;;;3.85;;
51214;SDS011;63849;47.546;19.254;2023-04-25T08:37:20;6.07;;;3.55;;
51214;SDS011;63849;47.546;19.254;2023-04-25T08:39:47;2.95;;;2.75;;
51214;SDS011;63849;47.546;19.254;2023-04-25T08:42:13;3.88;;;3.58;;
51214;SDS011;63849;47.546;19.254;2023-04-25T08:44:40;3.83;;;3.53;;
51214;SDS011;63849;47.546;19.254;2023-04-25T08:47:06;3.92;;;3.00;;
51214;SDS011;63849;47.546;19.254;2023-04-25T08:49:32;3.70;;;3.40;;
51214;SDS011;63849;47.546;19.254;2023-04-25T08:51:59;3.78;;;3.47;;
51214;SDS011;63849;47.546;19.254;2023-04-25T08:54:31;4.23;;;3.83;;
51214;SDS011;63849;47.546;19.254;2023-04-25T08:56:59;3.38;;;2.70;;
51214;SDS011;63849;47.546;19.254;2023-04-25T08:59:32;3.17;;;2.88;;
51214;SDS011;63849;47.546;19.254;2023-04-25T09:01:58;2.97;;;2.75;;
51214;SDS011;63849;47.546;19.254;2023-04-25T09:04:25;2.33;;;2.13;;
51214;SDS011;63849;47.546;19.254;2023-04-25T09:06:51;2.33;;;2.13;;
51214;SDS011;63849;47.546;19.254;2023-04-25T09:09:16;2.85;;;2.42;;
51214;SDS011;63849;47.546;19.254;2023-04-25T09:11:43;3.50;;;2.28;;
51214;SDS011;63849;47.546;19.254;2023-04-25T09:14:12;2.38;;;2.17;;
51214;SDS011;63849;47.546;19.254;2023-04-25T09:16:58;2.40;;;2.20;;
51214;SDS011;63849;47.546;19.254;2023-04-25T09:19:26;2.10;;;1.80;;
51214;SDS011;63849;47.546;19.254;2023-04-25T09:21:56;2.35;;;1.90;;
51214;SDS011;63849;47.546;19.254;2023-04-25T09:24:32;3.83;;;1.95;;
51214;SDS011;63849;47.546;19.254;2023-04-25T09:27:03;1.83;;;1.73;;
51214;SDS011;63849;47.546;19.254;2023-04-25T09:29:31;2.60;;;1.70;;
51214;SDS011;63849;47.546;19.254;2023-04-25T09:34:41;3.85;;;2.30;;
51214;SDS011;63849;47.546;19.254;2023-04-25T09:37:09;3.58;;;2.03;;
51214;SDS011;63849;47.546;19.254;2023-04-25T09:39:36;2.33;;;1.42;;
51214;SDS011;63849;47.546;19.254;2023-04-25T09:42:05;1.90;;;1.80;;
51214;SDS011;63849;47.546;19.254;2023-04-25T09:44:31;4.00;;;2.15;;
51214;SDS011;63849;47.546;19.254;2023-04-25T09:46:57;1.88;;;1.67;;
51214;SDS011;63849;47.546;19.254;2023-04-25T09:49:25;2.13;;;1.83;;
51214;SDS011;63849;47.546;19.254;2023-04-25T09:51:57;2.40;;;1.60;;
51214;SDS011;63849;47.546;19.254;2023-04-25T09:54:24;2.17;;;1.80;;
51214;SDS011;63849;47.546;19.254;2023-04-25T09:56:53;2.35;;;1.17;;
51214;SDS011;63849;47.546;19.254;2023-04-25T09:59:20;1.30;;;1.20;;
51214;SDS011;63849;47.546;19.254;2023-04-25T10:01:48;2.17;;;1.35;;
51214;SDS011;63849;47.546;19.254;2023-04-25T10:04:22;1.75;;;1.00;;
51214;SDS011;63849;47.546;19.254;2023-04-25T10:06:51;0.80;;;0.80;;
51214;SDS011;63849;47.546;19.254;2023-04-25T10:09:20;1.42;;;0.90;;
51214;SDS011;63849;47.546;19.254;2023-04-25T10:11:49;1.65;;;0.70;;
51214;SDS011;63849;47.546;19.254;2023-04-25T10:14:16;1.58;;;0.95;;
51214;SDS011;63849;47.546;19.254;2023-04-25T10:16:44;4.85;;;1.00;;
51214;SDS011;63849;47.546;19.254;2023-04-25T10:19:10;1.25;;;0.80;;
51214;SDS011;63849;47.546;19.254;2023-04-25T10:21:38;0.80;;;0.80;;
51214;SDS011;63849;47.546;19.254;2023-04-25T10:24:11;4.10;;;0.73;;
51214;SDS011;63849;47.546;19.254;2023-04-25T10:26:37;2.97;;;1.20;;
51214;SDS011;63849;47.546;19.254;2023-04-25T10:29:03;2.00;;;1.10;;
51214;SDS011;63849;47.546;19.254;2023-04-25T10:31:30;0.80;;;0.75;;
51214;SDS011;63849;47.546;19.254;2023-04-25T10:33:56;0.80;;;0.60;;
51214;SDS011;63849;47.546;19.254;2023-04-25T10:36:22;0.75;;;0.70;;
51214;SDS011;63849;47.546;19.254;2023-04-25T10:38:52;0.68;;;0.68;;
51214;SDS011;63849;47.546;19.254;2023-04-25T10:41:19;0.93;;;0.93;;
51214;SDS011;63849;47.546;19.254;2023-04-25T10:43:48;1.95;;;0.80;;
51214;SDS011;63849;47.546;19.254;2023-04-25T10:46:25;0.85;;;0.60;;
51214;SDS011;63849;47.546;19.254;2023-04-25T10:48:53;0.77;;;0.60;;
51214;SDS011;63849;47.546;19.254;2023-04-25T10:56:28;4.20;;;0.60;;
51214;SDS011;63849;47.546;19.254;2023-04-25T10:59:14;0.77;;;0.40;;
51214;SDS011;63849;47.546;19.254;2023-04-25T11:01:42;3.60;;;0.40;;
51214;SDS011;63849;47.546;19.254;2023-04-25T11:04:25;1.42;;;0.68;;
51214;SDS011;63849;47.546;19.254;2023-04-25T11:07:00;1.73;;;0.55;;
51214;SDS011;63849;47.546;19.254;2023-04-25T11:09:27;0.68;;;0.55;;
51214;SDS011;63849;47.546;19.254;2023-04-25T11:11:54;0.70;;;0.47;;
51214;SDS011;63849;47.546;19.254;2023-04-25T11:14:21;1.35;;;0.60;;
51214;SDS011;63849;47.546;19.254;2023-04-25T11:16:57;0.85;;;0.50;;
51214;SDS011;63849;47.546;19.254;2023-04-25T11:19:24;1.65;;;0.50;;
51214;SDS011;63849;47.546;19.254;2023-04-25T11:21:54;1.65;;;0.40;;
51214;SDS011;63849;47.546;19.254;2023-04-25T11:24:25;1.63;;;0.60;;
51214;SDS011;63849;47.546;19.254;2023-04-25T11:26:53;2.37;;;0.47;;
51214;SDS011;63849;47.546;19.254;2023-04-25T11:29:21;0.80;;;0.40;;
51214;SDS011;63849;47.546;19.254;2023-04-25T11:31:48;0.52;;;0.50;;
51214;SDS011;63849;47.546;19.254;2023-04-25T11:34:19;3.88;;;0.50;;
51214;SDS011;63849;47.546;19.254;2023-04-25T11:36:45;0.93;;;0.30;;
51214;SDS011;63849;47.546;19.254;2023-04-25T11:39:11;0.95;;;0.52;;
51214;SDS011;63849;47.546;19.254;2023-04-25T11:41:38;2.17;;;0.40;;
51214;SDS011;63849;47.546;19.254;2023-04-25T11:44:04;0.38;;;0.38;;
51214;SDS011;63849;47.546;19.254;2023-04-25T11:46:30;0.95;;;0.40;;
51214;SDS011;63849;47.546;19.254;2023-04-25T11:49:02;0.57;;;0.30;;
51214;SDS011;63849;47.546;19.254;2023-04-25T11:51:30;0.30;;;0.30;;
51214;SDS011;63849;47.546;19.254;2023-04-25T11:54:02;4.78;;;0.90;;
51214;SDS011;63849;47.546;19.254;2023-04-25T11:56:28;2.40;;;0.63;;
51214;SDS011;63849;47.546;19.254;2023-04-25T11:58:55;0.88;;;0.50;;
51214;SDS011;63849;47.546;19.254;2023-04-25T12:01:27;1.27;;;0.32;;
51214;SDS011;63849;47.546;19.254;2023-04-25T12:03:58;1.63;;;0.40;;
51214;SDS011;63849;47.546;19.254;2023-04-25T12:06:44;1.42;;;0.40;;
51214;SDS011;63849;47.546;19.254;2023-04-25T12:09:21;1.08;;;0.38;;
51214;SDS011;63849;47.546;19.254;2023-04-25T12:11:54;1.48;;;0.40;;
51214;SDS011;63849;47.546;19.254;2023-04-25T12:14:22;0.50;;;0.50;;
51214;SDS011;63849;47.546;19.254;2023-04-25T12:16:50;1.52;;;0.30;;
51214;SDS011;63849;47.546;19.254;2023-04-25T12:19:17;0.50;;;0.30;;
51214;SDS011;63849;47.546;19.254;2023-04-25T12:21:44;1.02;;;0.50;;
51214;SDS011;63849;47.546;19.254;2023-04-25T12:29:20;0.63;;;0.35;;
51214;SDS011;63849;47.546;19.254;2023-04-25T12:31:50;0.30;;;0.30;;
51214;SDS011;63849;47.546;19.254;2023-04-25T12:34:20;0.60;;;0.35;;
51214;SDS011;63849;47.546;19.254;2023-04-25T12:36:47;0.60;;;0.35;;
51214;SDS011;63849;47.546;19.254;2023-04-25T12:39:14;1.65;;;0.50;;
51214;SDS011;63849;47.546;19.254;2023-04-25T12:41:41;0.50;;;0.38;;
51214;SDS011;63849;47.546;19.254;2023-04-25T12:44:07;0.40;;;0.40;;
51214;SDS011;63849;47.546;19.254;2023-04-25T12:46:32;0.40;;;0.40;;
51214;SDS011;63849;47.546;19.254;2023-04-25T12:48:58;0.50;;;0.50;;
51214;SDS011;63849;47.546;19.254;2023-04-25T12:51:25;0.45;;;0.40;;
51214;SDS011;63849;47.546;19.254;2023-04-25T12:53:52;0.40;;;0.38;;
51214;SDS011;63849;47.546;19.254;2023-04-25T12:56:18;0.90;;;0.47;;
51214;SDS011;63849;47.546;19.254;2023-04-25T12:58:44;1.38;;;0.60;;
51214;SDS011;63849;47.546;19.254;2023-04-25T13:01:10;1.15;;;0.60;;
51214;SDS011;63849;47.546;19.254;2023-04-25T13:03:37;0.82;;;0.68;;
51214;SDS011;63849;47.546;19.254;2023-04-25T13:06:03;0.90;;;0.90;;
51214;SDS011;63849;47.546;19.254;2023-04-25T13:08:29;0.57;;;0.57;;
51214;SDS011;63849;47.546;19.254;2023-04-25T13:10:55;0.82;;;0.73;;
51214;SDS011;63849;47.546;19.254;2023-04-25T13:13:21;0.60;;;0.60;;
51214;SDS011;63849;47.546;19.254;2023-04-25T13:15:47;0.90;;;0.77;;
51214;SDS011;63849;47.546;19.254;2023-04-25T13:18:14;2.58;;;0.90;;
51214;SDS011;63849;47.546;19.254;2023-04-25T13:20:40;1.63;;;0.90;;
51214;SDS011;63849;47.546;19.254;2023-04-25T13:23:06;1.48;;;0.85;;
51214;SDS011;63849;47.546;19.254;2023-04-25T13:25:33;0.63;;;0.63;;
51214;SDS011;63849;47.546;19.254;2023-04-25T13:27:59;1.25;;;1.00;;
51214;SDS011;63849;47.546;19.254;2023-04-25T13:30:25;0.70;;;0.70;;
51214;SDS011;63849;47.546;19.254;2023-04-25T13:32:51;1.15;;;0.80;;
51214;SDS011;63849;47.546;19.254;2023-04-25T13:35:17;0.63;;;0.60;;
51214;SDS011;63849;47.546;19.254;2023-04-25T13:37:43;0.88;;;0.70;;
51214;SDS011;63849;47.546;19.254;2023-04-25T13:40:10;2.45;;;0.77;;
51214;SDS011;63849;47.546;19.254;2023-04-25T13:42:37;1.55;;;0.65;;
51214;SDS011;63849;47.546;19.254;2023-04-25T13:45:03;1.40;;;1.05;;
51214;SDS011;63849;47.546;19.254;2023-04-25T13:47:29;1.88;;;1.02;;
51214;SDS011;63849;47.546;19.254;2023-04-25T13:49:56;3.08;;;0.90;;
51214;SDS011;63849;47.546;19.254;2023-04-25T13:52:22;4.53;;;3.85;;
51214;SDS011;63849;47.546;19.254;2023-04-25T13:54:49;2.15;;;1.30;;
51214;SDS011;63849;47.546;19.254;2023-04-25T13:57:16;0.80;;;0.80;;
51214;SDS011;63849;47.546;19.254;2023-04-25T13:59:42;3.78;;;3.28;;
51214;SDS011;63849;47.546;19.254;2023-04-25T14:02:08;1.17;;;1.17;;
51214;SDS011;63849;47.546;19.254;2023-04-25T14:04:34;1.30;;;0.88;;
51214;SDS011;63849;47.546;19.254;2023-04-25T14:07:00;1.10;;;0.90;;
51214;SDS011;63849;47.546;19.254;2023-04-25T14:09:27;2.28;;;0.80;;
51214;SDS011;63849;47.546;19.254;2023-04-25T14:11:53;1.25;;;0.90;;
51214;SDS011;63849;47.546;19.254;2023-04-25T14:14:20;2.72;;;0.95;;
51214;SDS011;63849;47.546;19.254;2023-04-25T14:16:47;2.88;;;1.00;;
51214;SDS011;63849;47.546;19.254;2023-04-25T14:19:13;1.00;;;1.00;;
51214;SDS011;63849;47.546;19.254;2023-04-25T14:21:40;2.05;;;1.20;;
51214;SDS011;63849;47.546;19.254;2023-04-25T14:24:06;2.45;;;1.27;;
51214;SDS011;63849;47.546;19.254;2023-04-25T14:26:35;2.10;;;1.10;;
51214;SDS011;63849;47.546;19.254;2023-04-25T14:29:02;3.40;;;1.08;;
51214;SDS011;63849;47.546;19.254;2023-04-25T14:31:36;1.10;;;1.00;;
51214;SDS011;63849;47.546;19.254;2023-04-25T14:34:06;1.10;;;1.00;;
51214;SDS011;63849;47.546;19.254;2023-04-25T14:36:32;1.17;;;1.00;;
51214;SDS011;63849;47.546;19.254;2023-04-25T14:38:59;1.48;;;0.95;;
51214;SDS011;63849;47.546;19.254;2023-04-25T14:41:25;1.10;;;0.98;;
51214;SDS011;63849;47.546;19.254;2023-04-25T14:43:51;1.83;;;1.20;;
51214;SDS011;63849;47.546;19.254;2023-04-25T14:46:18;1.10;;;0.98;;